サンフランシスコ の空港の天気 - METARとTAF

サンフランシスコ国際空港 ( KSFO / SFO ) - アメリカ カリフォルニア州サンマテオ郡
飛行場実況気象(Metar)
観測時間05/26 18:56 PDT (05/27 01:56 UTC)
風向・風速西 7m/s
視程10km以上
天気現象
少しの雲 雲底高度 6100m
気温27.2℃
湿度38%
気圧1009.6hPa
METARKSFO 270156Z 28014KT 10SM FEW200 27/12 A2982 RMK AO2 SLP096 T02720117
過去の天気等 Google飛行場航空写真 Wunderground天気予報

過去48時間のMETAR

飛行場予報(TAF)
発表時間: 5/26 16:32 PDT (5/26 23:32 UTC)
予報対象時間: 26日17時 PDT ~ 27日23時 PDT
風向・風速西北西 8m/s
視程10km以上
少しの雲 雲底高度 1070m
26日21時 PDT から
風向・風速西 4m/s
視程10km以上
なし
27日9時 PDT から
風向・風速北北西 3m/s
視程10km以上
なし
27日14時 PDT から
風向・風速西北西 8m/s 瞬間風速 10m/s
視程10km以上
なし
27日22時 PDT から
風向・風速西 5m/s
視程10km以上
なし
KSFO 262332Z 2700/2806 30016KT P6SM FEW035
FM270400 28008KT P6SM SKC
FM271600 34005KT P6SM SKC
FM272100 29015G20KT P6SM SKC
FM280500 28010KT P6SM SKC